Time;durP1;ratioP1;P1;durP2;ratioP2;P2;SDS_P1;SDS_P2;PMS_P1;PMS_P2;Temp;Humidity;BMP_temperature;BMP_pressure;BME280_temperature;BME280_humidity;BME280_pressure;Samples;Min_cycle;Max_cycle;Signal;HPM_P1;HPM_P2
2022/12/02 00:01:12;;;;;;;;;59.00;41.50;;;;;8.01;64.70;102076.06;5097138;27;45425;-55
2022/12/02 00:03:38;;;;;;;;;55.75;40.50;;;;;7.95;64.40;102071.97;5097136;27;45392;-55
2022/12/02 00:06:03;;;;;;;;;72.00;53.00;;;;;7.92;65.64;102066.03;5097152;27;45281;-54
2022/12/02 00:08:31;;;;;;;;;39.25;34.00;;;;;7.91;65.03;102057.22;5097623;27;45580;-55
2022/12/02 00:11:01;;;;;;;;;52.75;37.00;;;;;7.92;65.31;102063.38;5097142;27;46143;-54
2022/12/02 00:13:43;;;;;;;;;37.00;32.25;;;;;7.85;65.46;102046.19;5097076;27;45338;-56
2022/12/02 00:16:23;;;;;;;;;47.00;35.25;;;;;7.87;65.95;102053.06;5097343;27;45377;-55
2022/12/02 00:18:50;;;;;;;;;39.00;33.50;;;;;7.87;65.79;102052.22;5099152;27;45365;-58
2022/12/02 00:21:15;;;;;;;;;44.50;32.75;;;;;7.86;65.09;102053.19;5100720;27;45857;-53
2022/12/02 00:23:41;;;;;;;;;39.50;33.25;;;;;7.85;66.16;102046.19;5116700;27;45410;-56
2022/12/02 00:26:06;;;;;;;;;53.50;34.25;;;;;7.83;65.74;102046.25;5100861;27;45420;-54
2022/12/02 00:28:31;;;;;;;;;50.00;32.25;;;;;7.81;65.67;102042.88;5100890;27;45312;-54
2022/12/02 00:30:57;;;;;;;;;44.00;37.75;;;;;7.82;66.80;102049.03;5099254;27;46132;-54
2022/12/02 00:33:22;;;;;;;;;40.25;36.75;;;;;7.81;66.04;102050.81;5100796;27;45336;-54
2022/12/02 00:35:48;;;;;;;;;43.75;37.75;;;;;7.80;65.92;102041.19;5100682;27;45302;-54
2022/12/02 00:38:13;;;;;;;;;51.00;38.25;;;;;7.79;66.47;102034.16;5101013;27;45361;-55
2022/12/02 00:40:39;;;;;;;;;63.25;40.75;;;;;7.78;66.62;102037.75;5100476;27;45501;-55
2022/12/02 00:48:32;;;;;;;;;49.25;33.75;;;;;7.78;67.01;102028.97;5100553;27;45442;-52
2022/12/02 00:50:58;;;;;;;;;36.25;30.75;;;;;7.78;66.76;102028.97;5100281;27;45992;-54
2022/12/02 00:53:23;;;;;;;;;50.75;37.25;;;;;7.78;67.09;102028.97;5100416;27;45417;-53
2022/12/02 00:55:48;;;;;;;;;47.25;33.50;;;;;7.76;67.50;102023.78;5100490;27;46074;-51
2022/12/02 00:58:14;;;;;;;;;37.25;31.00;;;;;7.74;66.56;102020.34;5100523;27;45310;-53
2022/12/02 01:00:40;;;;;;;;;43.00;33.00;;;;;7.78;66.98;102013.91;5100248;27;46314;-54
2022/12/02 01:03:06;;;;;;;;;46.75;34.75;;;;;7.78;66.79;102016.56;5100171;27;45361;-54
2022/12/02 01:05:31;;;;;;;;;37.50;32.50;;;;;7.82;66.59;102020.72;5100412;27;45335;-55
2022/12/02 01:07:56;;;;;;;;;42.25;32.25;;;;;7.86;67.45;102027.53;5100297;27;45278;-55
2022/12/02 01:10:22;;;;;;;;;55.50;38.75;;;;;7.88;67.11;102022.13;5099842;27;46279;-57
2022/12/02 01:12:47;;;;;;;;;38.00;33.00;;;;;7.89;66.62;102016.75;5100187;27;45451;-52
2022/12/02 01:15:13;;;;;;;;;46.00;27.75;;;;;7.90;67.08;102017.59;5100119;27;45271;-53
2022/12/02 01:17:38;;;;;;;;;51.75;36.25;;;;;7.90;67.46;102015.78;5100128;27;45456;-55
2022/12/02 01:20:04;;;;;;;;;49.50;35.00;;;;;7.88;66.41;102006.22;5099609;27;45306;-56
2022/12/02 01:22:29;;;;;;;;;44.50;33.75;;;;;7.88;67.27;102008.88;5099623;27;45302;-53
2022/12/02 01:24:55;;;;;;;;;44.75;36.00;;;;;7.92;67.00;102024.50;5098404;27;45347;-56
2022/12/02 01:27:21;;;;;;;;;46.50;36.75;;;;;7.93;66.70;102018.25;5100055;27;45326;-55
2022/12/02 01:29:47;;;;;;;;;47.75;39.00;;;;;7.86;66.24;101997.53;5098052;27;45416;-54
2022/12/02 01:32:12;;;;;;;;;51.00;37.75;;;;;7.95;66.60;102011.03;5099608;27;45239;-54
2022/12/02 01:34:37;;;;;;;;;60.75;42.25;;;;;7.95;66.54;102013.69;5099940;27;45274;-51
2022/12/02 01:37:03;;;;;;;;;47.50;35.75;;;;;7.95;66.46;102013.69;5099998;27;45240;-55
2022/12/02 01:39:28;;;;;;;;;47.25;38.00;;;;;7.96;66.60;102014.53;5099486;27;46967;-54
2022/12/02 01:41:54;;;;;;;;;51.75;37.25;;;;;7.97;67.58;102010.97;5099850;27;45394;-54
2022/12/02 01:44:19;;;;;;;;;51.75;35.50;;;;;7.97;67.70;102009.16;5099783;27;45504;-56
2022/12/02 01:46:44;;;;;;;;;48.25;38.00;;;;;7.94;66.53;102006.69;5099654;27;45381;-58
2022/12/02 01:49:10;;;;;;;;;43.75;35.75;;;;;7.95;67.22;102010.19;5099183;27;46250;-60
2022/12/02 01:51:35;;;;;;;;;40.75;34.75;;;;;8.00;67.09;102016.03;5098182;27;45450;-59
2022/12/02 01:54:01;;;;;;;;;57.00;36.75;;;;;7.98;66.65;102016.16;5099542;27;45381;-60
2022/12/02 01:56:26;;;;;;;;;50.75;38.25;;;;;7.97;67.01;102025.06;5099449;27;45371;-57
2022/12/02 01:58:52;;;;;;;;;52.00;37.25;;;;;7.98;67.42;102023.25;5099063;27;46414;-54
2022/12/02 02:01:29;;;;;;;;;50.25;39.75;;;;;7.97;67.20;102022.41;5099176;27;45196;-57
2022/12/02 02:03:55;;;;;;;;;51.25;35.50;;;;;7.98;67.36;102023.25;5099238;27;45353;-58
2022/12/02 02:06:23;;;;;;;;;46.25;35.50;;;;;7.98;67.41;102020.59;5099230;27;45285;-55
2022/12/02 02:08:48;;;;;;;;;47.50;34.00;;;;;7.97;66.96;102010.97;5114891;27;47055;-54
2022/12/02 02:11:15;;;;;;;;;45.25;35.00;;;;;7.97;66.94;102014.47;5098943;27;45365;-58
2022/12/02 02:13:40;;;;;;;;;22.75;8.00;;;;;7.94;66.69;102024.41;5099233;27;45367;-59
2022/12/02 02:16:06;;;;;;;;;45.50;37.00;;;;;7.95;67.45;102031.38;5099149;27;45431;-53
2022/12/02 02:18:31;;;;;;;;;45.75;38.75;;;;;7.94;67.63;102029.69;5097352;27;46076;-58
2022/12/02 02:20:59;;;;;;;;;49.50;39.50;;;;;7.91;66.92;102009.53;5097590;27;45368;-58
2022/12/02 02:23:25;;;;;;;;;48.75;39.50;;;;;7.92;66.87;101999.78;5097512;27;45408;-57
2022/12/02 02:25:55;;;;;;;;;59.50;41.00;;;;;7.92;66.21;102000.66;5098959;27;45233;-58
2022/12/02 02:28:23;;;;;;;;;42.00;31.75;;;;;7.92;66.29;101999.78;5098561;27;45396;-56
2022/12/02 02:30:53;;;;;;;;;65.75;40.75;;;;;7.91;66.97;101996.28;5099260;27;45527;-56
2022/12/02 02:33:20;;;;;;;;;43.00;32.75;;;;;7.94;66.40;101995.25;5099352;27;45392;-55
2022/12/02 02:35:46;;;;;;;;;51.00;39.00;;;;;7.92;66.98;101990.06;5098898;27;45438;-57
2022/12/02 02:38:16;;;;;;;;;52.00;36.25;;;;;7.92;66.69;101990.06;5098834;27;46446;-54
2022/12/02 02:40:42;;;;;;;;;58.75;40.50;;;;;7.91;66.18;101987.50;5098748;27;45412;-58
2022/12/02 02:43:09;;;;;;;;;45.50;35.50;;;;;7.91;66.96;101990.16;5098554;27;45492;-56
2022/12/02 02:45:37;;;;;;;;;49.25;37.75;;;;;7.91;66.65;101988.34;5098614;27;45329;-58
2022/12/02 02:48:05;;;;;;;;;44.00;38.00;;;;;7.91;66.96;101982.19;5098202;27;46228;-55
2022/12/02 02:50:32;;;;;;;;;53.50;39.75;;;;;7.83;67.11;101969.44;5098402;27;45392;-54
2022/12/02 02:52:58;;;;;;;;;47.50;41.50;;;;;7.90;65.97;101978.69;5098540;27;45351;-58
2022/12/02 02:55:26;;;;;;;;;53.75;40.00;;;;;7.89;66.70;101979.66;5098441;27;45335;-54
2022/12/02 02:57:51;;;;;;;;;50.25;38.50;;;;;7.90;67.00;101981.34;5098164;27;46432;-58
2022/12/02 03:00:19;;;;;;;;;50.75;41.00;;;;;7.89;66.99;101977.00;5098048;27;45380;-57
2022/12/02 03:02:48;;;;;;;;;54.75;40.00;;;;;7.91;66.91;101974.25;5098198;27;45318;-54
2022/12/02 03:05:14;;;;;;;;;49.75;37.25;;;;;7.92;67.07;101975.94;5098271;27;45435;-53
2022/12/02 03:07:40;;;;;;;;;43.00;33.00;;;;;7.62;66.90;101913.41;5098021;27;46122;-52
2022/12/02 03:10:06;;;;;;;;;42.75;28.50;;;;;7.92;66.09;101960.03;5097997;27;45309;-52
2022/12/02 03:12:32;;;;;;;;;44.75;40.50;;;;;7.91;66.64;101961.00;5098461;27;45236;-54
2022/12/02 03:15:00;;;;;;;;;47.50;35.50;;;;;7.93;66.98;101953.81;5098211;27;45236;-53
2022/12/02 03:17:25;;;;;;;;;40.25;34.75;;;;;7.94;66.30;101960.81;5097654;27;45436;-52
2022/12/02 03:19:51;;;;;;;;;41.75;28.25;;;;;7.96;66.11;101964.19;5097867;27;45265;-60
2022/12/02 03:22:17;;;;;;;;;56.25;37.50;;;;;7.89;66.43;101952.31;5098178;27;45262;-52
2022/12/02 03:24:42;;;;;;;;;54.50;40.25;;;;;7.93;66.53;101949.38;5098294;27;45575;-54
2022/12/02 03:27:09;;;;;;;;;62.50;44.00;;;;;7.86;65.88;101947.22;5097730;27;46038;-53
2022/12/02 03:29:35;;;;;;;;;46.00;34.25;;;;;7.95;66.20;101954.56;5097944;27;45511;-54
2022/12/02 03:32:02;;;;;;;;;47.50;35.75;;;;;7.96;66.09;101950.94;5097828;27;45350;-58
2022/12/02 03:34:28;;;;;;;;;54.25;40.00;;;;;7.95;66.25;101955.41;5096934;27;45440;-56
2022/12/02 03:36:55;;;;;;;;;55.25;42.00;;;;;7.91;65.86;101951.25;5097398;27;45388;-57
2022/12/02 03:39:21;;;;;;;;;50.75;38.25;;;;;7.95;65.73;101943.94;5097539;27;45333;-54
2022/12/02 03:41:47;;;;;;;;;58.00;41.50;;;;;7.92;66.06;101946.78;5097776;27;45273;-54
2022/12/02 03:44:14;;;;;;;;;54.25;37.75;;;;;7.89;65.85;101947.00;5097941;27;45314;-57
2022/12/02 03:46:40;;;;;;;;;54.25;39.00;;;;;7.89;66.01;101950.50;5096987;27;46396;-55
2022/12/02 03:49:05;;;;;;;;;53.00;39.00;;;;;7.87;65.84;101939.16;5097291;27;45349;-55
2022/12/02 03:51:31;;;;;;;;;53.00;33.50;;;;;7.90;66.39;101946.91;5096167;27;45311;-54
2022/12/02 03:53:58;;;;;;;;;57.75;41.00;;;;;7.89;65.87;101947.00;5096791;27;45324;-52
2022/12/02 03:56:24;;;;;;;;;50.25;39.75;;;;;7.84;66.33;101934.06;5097475;27;46462;-54
2022/12/02 03:58:51;;;;;;;;;54.50;38.00;;;;;7.87;66.45;101927.69;5098340;27;45333;-55
2022/12/02 04:01:18;;;;;;;;;52.75;42.75;;;;;7.87;65.50;101923.25;5098886;27;45337;-55
2022/12/02 04:03:43;;;;;;;;;62.25;41.50;;;;;7.86;65.99;101926.00;5098749;27;45387;-53
2022/12/02 04:06:09;;;;;;;;;49.25;40.00;;;;;7.86;66.11;101932.16;5098718;27;45431;-51
2022/12/02 04:08:34;;;;;;;;;41.00;32.00;;;;;7.86;66.25;101936.59;5098948;27;45516;-54
2022/12/02 04:11:00;;;;;;;;;45.25;31.50;;;;;7.84;66.48;101930.56;5097486;27;45589;-57
2022/12/02 04:13:25;;;;;;;;;62.00;41.50;;;;;7.85;66.62;101927.81;5097464;27;45398;-56
2022/12/02 04:15:51;;;;;;;;;50.25;36.50;;;;;7.85;66.37;101917.22;5098159;27;45470;-56
2022/12/02 04:18:16;;;;;;;;;54.75;39.75;;;;;7.74;66.24;101896.72;5098421;27;45294;-53
2022/12/02 04:20:42;;;;;;;;;46.50;33.00;;;;;7.86;66.44;101910.13;5097558;27;45364;-57
2022/12/02 04:23:07;;;;;;;;;60.25;38.25;;;;;7.84;65.81;101893.50;5097236;27;45218;-52
2022/12/02 04:25:32;;;;;;;;;40.75;33.75;;;;;7.88;65.95;101901.13;5096915;27;46124;-56
2022/12/02 04:27:58;;;;;;;;;56.50;39.50;;;;;7.88;66.46;101900.25;5097228;27;45287;-55
2022/12/02 04:30:24;;;;;;;;;50.50;39.25;;;;;7.89;65.78;101905.47;5097037;27;45377;-54
2022/12/02 04:32:49;;;;;;;;;48.50;36.25;;;;;7.89;65.28;101894.88;5097312;27;45203;-54
2022/12/02 04:35:14;;;;;;;;;63.50;41.00;;;;;7.90;66.09;101903.66;5096970;27;46051;-54
2022/12/02 04:37:40;;;;;;;;;52.25;33.25;;;;;7.91;65.58;101902.72;5095539;27;45256;-52
2022/12/02 04:40:06;;;;;;;;;52.75;39.75;;;;;7.87;65.89;101902.06;5097201;27;45421;-53
2022/12/02 04:42:31;;;;;;;;;59.25;39.25;;;;;7.88;66.11;101901.13;5097186;27;45338;-53
2022/12/02 04:44:57;;;;;;;;;47.50;40.25;;;;;7.91;66.03;101913.31;5096690;27;45340;-51
2022/12/02 04:47:22;;;;;;;;;42.75;37.00;;;;;7.90;65.97;101908.97;5112308;27;45781;-54
2022/12/02 04:49:48;;;;;;;;;49.75;38.00;;;;;7.86;66.30;101888.94;5096884;27;45471;-54
2022/12/02 04:52:14;;;;;;;;;39.75;35.25;;;;;7.92;66.06;101899.09;5097102;27;45479;-54
2022/12/02 04:54:39;;;;;;;;;48.25;37.25;;;;;7.91;65.86;101897.41;5096628;27;46977;-52
2022/12/02 04:57:04;;;;;;;;;36.75;33.00;;;;;7.90;66.72;101899.22;5096623;27;45630;-54
2022/12/02 04:59:30;;;;;;;;;51.50;41.00;;;;;7.89;66.40;101891.38;5096814;27;45317;-52
2022/12/02 05:01:55;;;;;;;;;42.25;37.25;;;;;7.90;66.08;101891.25;5096731;27;45364;-54
2022/12/02 05:04:20;;;;;;;;;55.00;37.25;;;;;7.91;66.09;101887.66;5097756;27;46591;-54
2022/12/02 05:06:46;;;;;;;;;46.50;38.00;;;;;7.92;65.78;101888.50;5099939;27;45368;-53
2022/12/02 05:09:11;;;;;;;;;48.00;36.00;;;;;7.93;66.38;101893.72;5100319;27;45373;-51
2022/12/02 05:11:36;;;;;;;;;45.50;36.75;;;;;7.92;66.02;101891.16;5100195;27;45601;-53
2022/12/02 05:14:02;;;;;;;;;42.75;28.75;;;;;7.88;66.14;101885.25;5100036;27;45365;-51
2022/12/02 05:16:27;;;;;;;;;57.00;43.00;;;;;7.89;65.98;101888.72;5099982;27;45436;-54
2022/12/02 05:18:53;;;;;;;;;53.00;38.00;;;;;7.88;65.49;101887.00;5099748;27;45404;-54
2022/12/02 05:21:18;;;;;;;;;59.50;43.50;;;;;7.84;66.09;101878.44;5100338;27;45280;-53
2022/12/02 05:23:43;;;;;;;;;67.50;46.50;;;;;7.85;66.18;101879.28;5099729;27;46128;-52
2022/12/02 05:26:09;;;;;;;;;55.25;39.50;;;;;7.81;66.60;101864.53;5099693;27;45457;-54
2022/12/02 05:28:34;;;;;;;;;58.75;43.75;;;;;7.85;66.53;101876.63;5099829;27;45442;-54
2022/12/02 05:31:00;;;;;;;;;57.50;40.75;;;;;7.84;66.40;101874.94;5099875;27;45351;-52
2022/12/02 05:33:25;;;;;;;;;62.25;38.50;;;;;7.79;66.32;101863.78;5099663;27;45247;-54
2022/12/02 05:35:50;;;;;;;;;57.25;40.00;;;;;7.80;65.94;101874.28;5099548;27;45454;-53
2022/12/02 05:38:16;;;;;;;;;60.00;42.00;;;;;7.77;66.62;101869.19;5099903;27;45247;-53
2022/12/02 05:40:41;;;;;;;;;50.00;40.75;;;;;7.73;66.75;101855.28;5099926;27;45293;-54
2022/12/02 05:43:16;;;;;;;;;54.50;39.00;;;;;7.71;66.06;101857.22;5099514;27;45485;-51
2022/12/02 05:45:42;;;;;;;;;52.00;41.00;;;;;7.71;65.97;101857.22;5099122;27;45419;-55
2022/12/02 05:48:12;;;;;;;;;56.75;34.25;;;;;7.71;66.15;101862.50;5099356;27;45386;-52
2022/12/02 05:50:39;;;;;;;;;48.00;29.50;;;;;7.65;66.66;101852.28;5099778;27;45400;-54
2022/12/02 05:53:06;;;;;;;;;46.25;39.25;;;;;7.72;67.08;101863.34;5099276;27;46195;-54
2022/12/02 05:55:33;;;;;;;;;53.50;39.75;;;;;7.73;66.55;101852.66;5099231;27;45429;-55
2022/12/02 05:58:01;;;;;;;;;57.50;41.25;;;;;7.74;66.55;101856.97;5099267;27;45329;-56
2022/12/02 06:00:27;;;;;;;;;61.00;44.00;;;;;7.73;66.45;101852.66;5099753;27;45511;-56
2022/12/02 06:03:00;;;;;;;;;49.50;39.25;;;;;7.73;66.82;101850.00;5099667;27;46207;-52
2022/12/02 06:05:37;;;;;;;;;56.00;42.00;;;;;7.74;67.04;101851.69;5099034;27;45303;-55
2022/12/02 06:08:20;;;;;;;;;52.25;37.50;;;;;7.72;66.42;101844.81;5099582;27;45319;-55
2022/12/02 06:10:49;;;;;;;;;54.25;41.00;;;;;7.75;66.26;101834.00;5099301;27;45398;-57
2022/12/02 06:13:36;;;;;;;;;59.50;40.50;;;;;7.74;66.63;101830.50;5098864;27;46148;-54
2022/12/02 06:16:07;;;;;;;;;63.25;39.75;;;;;7.72;66.21;101828.91;5098216;27;45354;-52
2022/12/02 06:18:34;;;;;;;;;51.50;39.50;;;;;7.74;66.27;101834.94;5098749;27;45513;-55
2022/12/02 06:21:02;;;;;;;;;49.50;38.50;;;;;7.73;66.64;101838.56;5099365;27;45248;-53
2022/12/02 06:23:30;;;;;;;;;59.75;39.75;;;;;7.73;66.58;101844.69;5098698;27;46545;-55
2022/12/02 06:25:57;;;;;;;;;61.00;43.25;;;;;7.73;66.83;101836.75;5098645;27;45358;-54
2022/12/02 06:28:46;;;;;;;;;58.50;43.75;;;;;7.75;67.58;101840.16;5098886;27;45311;-53
2022/12/02 06:31:24;;;;;;;;;64.50;45.00;;;;;7.75;67.43;101834.88;5099096;27;45220;-55
2022/12/02 06:33:52;;;;;;;;;52.75;38.00;;;;;7.77;67.47;101836.56;5098504;27;45375;-55
2022/12/02 06:36:21;;;;;;;;;60.25;44.00;;;;;7.75;66.47;101834.88;5098552;27;45258;-57
2022/12/02 06:38:48;;;;;;;;;55.50;42.75;;;;;7.73;66.71;101842.06;5097342;27;45290;-53
2022/12/02 06:41:30;;;;;;;;;45.00;40.25;;;;;7.74;67.50;101833.16;5098902;27;45365;-54
2022/12/02 06:47:19;;;;;;;;;58.25;41.75;;;;;7.77;66.41;101836.56;5098291;27;45462;-56
2022/12/02 06:49:44;;;;;;;;;64.50;44.50;;;;;7.77;66.83;101828.59;5098517;27;45589;-54
2022/12/02 06:52:21;;;;;;;;;53.00;40.25;;;;;7.75;66.37;101824.28;5098445;27;45454;-55
2022/12/02 06:54:47;;;;;;;;;65.50;45.75;;;;;7.74;67.10;101819.91;5098191;27;46368;-57
2022/12/02 06:57:17;;;;;;;;;59.75;41.75;;;;;7.69;66.93;101824.66;5098026;27;45502;-57
2022/12/02 06:59:47;;;;;;;;;53.25;40.50;;;;;7.73;67.21;101827.97;5098116;27;45424;-55
2022/12/02 07:02:31;;;;;;;;;62.75;43.00;;;;;7.71;67.41;101819.25;5098461;27;45567;-52
2022/12/02 07:04:57;;;;;;;;;66.00;41.50;;;;;7.73;66.58;101826.16;5098140;27;46284;-57
2022/12/02 07:07:28;;;;;;;;;63.00;42.25;;;;;7.74;67.12;101830.50;5097980;27;45346;-54
2022/12/02 07:09:53;;;;;;;;;56.25;43.50;;;;;7.74;66.65;101830.50;5098186;27;45412;-55
2022/12/02 07:12:23;;;;;;;;;50.50;37.50;;;;;7.76;67.21;101827.75;5098516;27;45381;-53
2022/12/02 07:14:52;;;;;;;;;61.50;45.75;;;;;7.73;66.83;101831.47;5098062;27;45979;-55
2022/12/02 07:17:28;;;;;;;;;60.50;42.25;;;;;7.74;67.57;101832.31;5097959;27;45419;-55
2022/12/02 07:19:56;;;;;;;;;55.75;39.50;;;;;7.72;67.59;101824.47;5097795;27;45437;-54
2022/12/02 07:22:32;;;;;;;;;59.00;41.75;;;;;7.70;68.17;101822.84;5098053;27;45543;-55
2022/12/02 07:25:26;;;;;;;;;54.50;40.25;;;;;7.71;67.66;101825.44;5097433;27;46312;-53
2022/12/02 07:27:52;;;;;;;;;53.50;44.50;;;;;7.67;67.61;101818.63;5096428;27;45301;-52
2022/12/02 07:31:07;;;;;;;;;61.75;44.00;;;;;7.73;67.63;101830.59;5098071;27;45214;-52
2022/12/02 07:33:32;;;;;;;;;62.75;48.00;;;;;7.69;68.22;101829.13;4955795;28;45507;-52
2022/12/02 07:35:58;;;;;;;;;63.75;47.25;;;;;7.68;68.03;101827.44;4955576;28;46218;-53
2022/12/02 07:38:23;;;;;;;;;57.00;41.75;;;;;7.67;68.54;101820.44;4953982;28;45539;-56
2022/12/02 07:40:48;;;;;;;;;58.75;40.50;;;;;7.67;68.80;101813.34;4952162;28;45421;-53
2022/12/02 07:43:14;;;;;;;;;56.25;42.25;;;;;7.67;67.96;101815.97;4955268;28;45462;-52
2022/12/02 07:45:39;;;;;;;;;54.00;44.25;;;;;7.65;67.93;101815.22;4954093;28;46180;-55
2022/12/02 07:48:05;;;;;;;;;59.25;35.75;;;;;7.63;69.59;101827.72;4954340;28;45465;-53
2022/12/02 07:50:30;;;;;;;;;55.50;46.75;;;;;7.61;69.13;101831.41;4955553;28;45460;-50
2022/12/02 07:52:55;;;;;;;;;52.00;41.00;;;;;7.60;69.48;101833.22;4955520;28;45557;-52
2022/12/02 07:55:21;;;;;;;;;63.75;43.50;;;;;7.63;69.25;101834.84;4955242;28;46356;-52
2022/12/02 07:57:46;;;;;;;;;58.50;44.00;;;;;7.60;70.09;101835.03;4953525;28;45527;-53
2022/12/02 08:00:12;;;;;;;;;63.25;41.25;;;;;7.62;69.30;101823.34;4936781;28;45531;-55
2022/12/02 08:02:38;;;;;;;;;58.50;42.25;;;;;7.63;70.06;101825.09;4951699;28;45386;-56
2022/12/02 08:05:04;;;;;;;;;62.75;45.50;;;;;7.63;70.13;101825.09;4951835;28;45474;-54
2022/12/02 08:07:29;;;;;;;;;58.75;43.00;;;;;7.65;69.68;101825.81;4952711;28;45465;-54
2022/12/02 08:09:55;;;;;;;;;60.75;46.75;;;;;7.68;69.86;101832.72;5014409;27;45675;-54
2022/12/02 08:12:20;;;;;;;;;62.75;43.25;;;;;7.65;70.08;101828.47;5094850;27;45375;-52
2022/12/02 08:14:46;;;;;;;;;61.25;44.50;;;;;7.69;69.84;101835.25;5094500;27;45363;-56
2022/12/02 08:17:11;;;;;;;;;59.25;44.00;;;;;7.71;69.47;101822.78;5094275;27;45365;-52
2022/12/02 08:19:37;;;;;;;;;55.25;39.50;;;;;7.71;69.75;101816.59;5094320;27;45578;-55
2022/12/02 08:22:02;;;;;;;;;62.75;44.00;;;;;7.72;69.54;101811.22;5094804;27;45418;-54
2022/12/02 08:24:28;;;;;;;;;69.50;47.50;;;;;7.61;69.50;101800.47;5094082;27;46233;-53
2022/12/02 08:26:53;;;;;;;;;63.75;45.25;;;;;7.73;69.86;101820.00;5094111;27;46022;-54
2022/12/02 08:29:19;;;;;;;;;59.00;43.50;;;;;7.74;70.44;101822.56;5094276;27;45347;-54
2022/12/02 08:31:44;;;;;;;;;66.25;48.00;;;;;7.74;69.69;101827.84;5094640;27;45471;-52
2022/12/02 08:34:10;;;;;;;;;65.75;46.75;;;;;7.75;69.58;101834.88;5094208;27;45452;-55
2022/12/02 08:36:35;;;;;;;;;52.50;40.75;;;;;7.74;69.58;101832.31;5094204;27;45428;-52
2022/12/02 08:39:04;;;;;;;;;67.50;45.00;;;;;7.72;69.48;101835.06;5094407;27;45456;-55
2022/12/02 08:41:31;;;;;;;;;62.25;42.75;;;;;7.69;70.17;101829.13;5098202;27;45446;-54
2022/12/02 08:43:58;;;;;;;;;67.00;50.50;;;;;7.72;70.02;101840.34;5097733;27;45461;-52
2022/12/02 08:46:24;;;;;;;;;68.75;45.25;;;;;7.70;69.26;101829.00;5095781;27;45510;-55
2022/12/02 08:48:49;;;;;;;;;62.25;48.00;;;;;7.72;69.65;101828.91;5097447;27;45733;-56
2022/12/02 08:51:15;;;;;;;;;61.75;43.25;;;;;7.73;69.22;101827.97;5098119;27;45476;-52
2022/12/02 08:53:40;;;;;;;;;68.50;49.00;;;;;7.59;69.24;101815.63;5097787;27;45810;-51
2022/12/02 08:56:06;;;;;;;;;67.50;51.50;;;;;7.67;68.67;101823.94;5097789;27;45459;-52
2022/12/02 08:58:31;;;;;;;;;65.00;47.50;;;;;7.69;68.54;101835.25;5097719;27;45435;-52
2022/12/02 09:00:56;;;;;;;;;66.00;47.75;;;;;7.66;69.38;101822.22;5097635;27;45482;-55
2022/12/02 09:03:22;;;;;;;;;67.50;48.50;;;;;7.66;69.40;101821.38;5097430;27;46969;-53
2022/12/02 09:05:47;;;;;;;;;70.00;46.50;;;;;7.67;69.47;101812.50;5097369;27;45520;-56
2022/12/02 09:08:13;;;;;;;;;70.25;47.25;;;;;7.68;69.22;101807.09;5097750;27;45376;-55
2022/12/02 09:10:39;;;;;;;;;42.00;36.50;;;;;7.70;68.56;101814.91;5097457;27;45523;-59
2022/12/02 09:13:04;;;;;;;;;70.75;52.25;;;;;7.71;68.87;101814.84;5097499;27;45393;-54
2022/12/02 09:15:29;;;;;;;;;69.25;48.25;;;;;7.73;69.61;101815.56;5097491;27;45448;-52
2022/12/02 09:17:55;;;;;;;;;73.75;48.00;;;;;7.74;68.74;101811.97;5097667;27;45572;-53
2022/12/02 09:20:20;;;;;;;;;69.50;50.00;;;;;7.72;68.16;101813.88;5097767;27;45479;-51
2022/12/02 09:22:46;;;;;;;;;72.00;46.75;;;;;7.72;69.24;101819.16;5096898;27;46431;-56
2022/12/02 09:25:12;;;;;;;;;63.00;47.75;;;;;7.73;69.06;101823.50;5097155;27;45468;-52
2022/12/02 09:27:37;;;;;;;;;64.50;44.00;;;;;7.69;69.24;101808.78;5097786;27;45465;-53
2022/12/02 09:30:03;;;;;;;;;65.50;47.75;;;;;7.74;68.59;101811.09;5097459;27;45315;-55
2022/12/02 09:32:29;;;;;;;;;67.00;51.25;;;;;7.74;68.60;101809.31;5097670;27;46488;-55
2022/12/02 09:34:55;;;;;;;;;63.75;51.00;;;;;7.75;68.38;101808.38;5096639;27;45411;-53
2022/12/02 09:37:21;;;;;;;;;67.00;48.00;;;;;7.78;68.59;101809.09;5097166;27;45531;-52
2022/12/02 09:39:47;;;;;;;;;68.00;50.25;;;;;7.68;68.50;101785.91;5097399;27;45895;-53
2022/12/02 09:42:13;;;;;;;;;69.00;50.00;;;;;7.77;68.79;101802.13;5095274;27;45469;-50
2022/12/02 09:44:40;;;;;;;;;87.75;62.75;;;;;7.71;68.46;101790.13;5096816;27;45416;-51
2022/12/02 09:47:06;;;;;;;;;77.25;57.75;;;;;7.77;68.77;101805.63;5096656;27;45492;-54
2022/12/02 09:49:31;;;;;;;;;64.25;49.25;;;;;7.81;68.37;101804.47;5096796;27;45538;-52
2022/12/02 09:52:01;;;;;;;;;64.75;50.25;;;;;7.81;69.04;101801.81;5098576;27;46147;-52
2022/12/02 09:54:27;;;;;;;;;64.25;49.50;;;;;7.77;68.26;101797.66;5099479;27;45396;-54
2022/12/02 09:56:53;;;;;;;;;72.75;49.00;;;;;7.79;68.34;101801.06;5099549;27;45280;-56
2022/12/02 09:59:18;;;;;;;;;69.50;50.25;;;;;7.81;68.98;101804.47;5099997;27;45280;-56
2022/12/02 10:01:47;;;;;;;;;71.00;54.00;;;;;7.81;67.92;101803.63;5099407;27;46182;-54
2022/12/02 10:04:17;;;;;;;;;73.75;50.50;;;;;7.80;68.54;101800.13;5099552;27;45461;-52
2022/12/02 10:06:42;;;;;;;;;66.25;50.25;;;;;7.81;67.70;101793.03;5099220;27;45338;-55
2022/12/02 10:09:15;;;;;;;;;45.00;33.25;;;;;7.75;67.88;101778.38;5099272;27;45370;-52
2022/12/02 10:11:41;;;;;;;;;76.00;49.50;;;;;7.82;68.06;101790.25;5097690;27;46329;-54
2022/12/02 10:14:13;;;;;;;;;77.00;54.50;;;;;7.78;68.27;101766.72;5098750;27;45483;-56
2022/12/02 10:16:39;;;;;;;;;70.25;49.75;;;;;7.86;68.72;101767.06;5099000;27;45340;-55
2022/12/02 10:19:05;;;;;;;;;61.75;46.75;;;;;7.88;68.40;101770.44;5099359;27;45305;-52
2022/12/02 10:21:32;;;;;;;;;68.75;49.50;;;;;7.85;68.55;101766.22;5098736;27;45328;-55
2022/12/02 10:24:08;;;;;;;;;70.50;48.00;;;;;7.86;68.36;101778.50;5099262;27;45490;-56
2022/12/02 10:26:48;;;;;;;;;68.00;49.50;;;;;7.87;68.00;101782.00;5099372;27;45209;-54
2022/12/02 10:29:24;;;;;;;;;69.75;52.50;;;;;7.89;67.40;101769.50;5099188;27;45437;-57
2022/12/02 10:31:53;;;;;;;;;63.00;48.25;;;;;7.90;67.34;101763.25;5098889;27;46525;-53
2022/12/02 10:34:20;;;;;;;;;63.00;46.00;;;;;7.91;68.00;101762.28;5098706;27;45412;-54
2022/12/02 10:36:46;;;;;;;;;74.25;48.25;;;;;7.93;67.46;101755.09;5098721;27;45369;-53
2022/12/02 10:39:27;;;;;;;;;70.75;52.50;;;;;7.95;68.05;101758.47;5098773;27;45183;-55
2022/12/02 10:42:07;;;;;;;;;69.00;51.00;;;;;7.96;68.10;101768.13;5098394;27;46179;-56
2022/12/02 10:44:41;;;;;;;;;70.50;52.50;;;;;7.97;68.10;101759.25;5098372;27;45435;-53
2022/12/02 10:47:22;;;;;;;;;71.00;49.00;;;;;7.92;67.41;101754.25;5098486;27;45515;-55
2022/12/02 10:49:52;;;;;;;;;67.25;51.50;;;;;7.97;67.71;101754.78;5098765;27;45381;-53
2022/12/02 10:52:25;;;;;;;;;67.50;45.75;;;;;7.97;67.21;101757.44;5098369;27;46521;-61
2022/12/02 10:54:53;;;;;;;;;63.25;49.75;;;;;7.96;67.50;101736.31;5098401;27;45373;-54
2022/12/02 10:57:27;;;;;;;;;70.25;52.75;;;;;7.99;67.31;101736.97;5098586;27;45392;-60
2022/12/02 10:59:54;;;;;;;;;67.75;48.00;;;;;7.99;66.94;101733.47;5098714;27;45242;-54
2022/12/02 11:02:23;;;;;;;;;60.75;46.25;;;;;7.98;66.92;101729.97;5098035;27;45517;-52
2022/12/02 11:04:49;;;;;;;;;63.25;48.75;;;;;7.97;66.98;101730.09;5098165;27;45460;-60
2022/12/02 11:07:16;;;;;;;;;69.00;49.00;;;;;7.96;68.03;101731.03;5098111;27;45364;-62
2022/12/02 11:09:50;;;;;;;;;71.00;51.25;;;;;7.91;67.33;101719.91;5098433;27;45357;-58
2022/12/02 11:12:32;;;;;;;;;67.75;46.25;;;;;7.95;67.49;101732.84;5098208;27;45317;-59
2022/12/02 11:14:58;;;;;;;;;67.75;47.75;;;;;7.93;66.79;101726.81;5098305;27;45366;-61
2022/12/02 11:17:47;;;;;;;;;70.75;48.50;;;;;7.93;67.32;101728.63;5098337;27;45272;-62
2022/12/02 11:20:38;;;;;;;;;62.00;49.00;;;;;7.93;66.54;101723.31;5098527;27;45456;-61
2022/12/02 11:23:13;;;;;;;;;71.50;50.75;;;;;7.94;66.92;101723.19;5097038;27;46017;-62
2022/12/02 11:25:41;;;;;;;;;70.50;50.00;;;;;7.93;67.66;101712.72;5097608;27;45520;-58
2022/12/02 11:28:28;;;;;;;;;66.50;49.25;;;;;7.94;67.55;101709.09;5098059;27;45291;-59